Time;durP1;ratioP1;P1;durP2;ratioP2;P2;SDS_P1;SDS_P2;PMS_P1;PMS_P2;Temp;Humidity;BMP_temperature;BMP_pressure;BME280_temperature;BME280_humidity;BME280_pressure;Samples;Min_cycle;Max_cycle;Signal;HPM_P1;HPM_P2
2022/03/28 00:01:28;;;;;;;22.53;3.53;;;4.70;99.90;;;;;;5115221;28;20047;-83
2022/03/28 00:03:53;;;;;;;41.17;4.50;;;4.70;99.90;;;;;;5114791;28;20050;-83
2022/03/28 00:06:19;;;;;;;32.00;3.63;;;4.80;99.90;;;;;;5114724;28;20047;-83
2022/03/28 00:08:45;;;;;;;17.20;3.13;;;4.80;99.90;;;;;;5115260;28;20139;-83
2022/03/28 00:11:10;;;;;;;20.70;3.43;;;4.80;99.90;;;;;;5113926;28;20503;-83
2022/03/28 00:13:37;;;;;;;25.30;3.50;;;4.90;99.90;;;;;;5115175;28;20044;-83
2022/03/28 00:16:04;;;;;;;53.07;4.20;;;4.90;99.90;;;;;;5097004;28;20079;-83
2022/03/28 00:18:29;;;;;;;33.63;4.23;;;4.90;99.90;;;;;;5095790;28;20042;-83
2022/03/28 00:20:55;;;;;;;37.03;4.13;;;4.90;99.90;;;;;;5096967;28;20051;-83
2022/03/28 00:23:22;;;;;;;44.00;4.03;;;4.80;99.90;;;;;;5114117;28;20118;-83
2022/03/28 00:25:48;;;;;;;31.77;4.10;;;4.80;99.90;;;;;;5096868;28;20043;-83
2022/03/28 00:28:14;;;;;;;37.20;4.43;;;4.70;99.90;;;;;;5114501;28;20035;-83
2022/03/28 00:30:41;;;;;;;25.47;3.53;;;4.70;99.90;;;;;;5095938;28;20486;-83
2022/03/28 00:33:06;;;;;;;31.00;3.63;;;4.70;99.90;;;;;;5115040;28;20051;-83
2022/03/28 00:35:33;;;;;;;38.20;4.30;;;4.70;99.90;;;;;;5114324;28;20040;-83
2022/03/28 00:37:59;;;;;;;20.67;3.70;;;4.60;99.90;;;;;;5113887;28;20048;-83
2022/03/28 00:40:27;;;;;;;19.07;3.90;;;4.60;99.90;;;;;;5114433;28;20039;-83
2022/03/28 00:42:54;;;;;;;23.87;3.80;;;4.70;99.90;;;;;;5079624;28;20043;-83
2022/03/28 00:45:20;;;;;;;22.87;4.10;;;4.60;99.90;;;;;;5113798;28;20040;-83
2022/03/28 00:47:46;;;;;;;31.00;4.50;;;4.70;99.90;;;;;;5096282;28;20036;-83
2022/03/28 00:50:11;;;;;;;33.67;5.60;;;4.70;99.90;;;;;;5114393;28;20051;-83
2022/03/28 00:52:38;;;;;;;64.37;6.67;;;4.70;99.90;;;;;;5113603;28;20052;-83
2022/03/28 00:55:05;;;;;;;23.40;4.40;;;4.70;99.90;;;;;;5114285;28;20398;-83
2022/03/28 00:57:32;;;;;;;26.07;5.10;;;4.70;99.90;;;;;;5113875;28;20464;-83
2022/03/28 00:59:59;;;;;;;21.63;4.87;;;4.70;99.90;;;;;;5095449;28;20518;-84
2022/03/28 01:02:24;;;;;;;33.90;4.87;;;4.80;99.90;;;;;;5095260;28;20487;-83
2022/03/28 01:04:50;;;;;;;26.93;4.30;;;4.80;99.90;;;;;;5095813;28;20054;-83
2022/03/28 01:07:17;;;;;;;24.47;4.00;;;4.80;99.90;;;;;;5094850;28;20062;-84
2022/03/28 01:09:44;;;;;;;27.77;4.93;;;4.80;99.90;;;;;;5114209;28;20035;-84
2022/03/28 01:12:10;;;;;;;28.03;4.83;;;4.70;99.90;;;;;;5113652;28;20060;-84
2022/03/28 01:14:37;;;;;;;30.27;5.63;;;4.80;99.90;;;;;;5094919;28;20047;-84
2022/03/28 01:19:54;;;;;;;37.27;5.67;;;4.80;99.90;;;;;;5094581;28;20052;-84
2022/03/28 01:22:20;;;;;;;38.03;5.53;;;4.90;99.90;;;;;;5112872;28;20118;-84
2022/03/28 01:24:47;;;;;;;36.10;6.30;;;4.90;99.90;;;;;;5095338;28;20059;-84
2022/03/28 01:27:14;;;;;;;31.73;6.13;;;4.90;99.90;;;;;;5094359;28;20095;-84
2022/03/28 01:29:42;;;;;;;20.70;5.53;;;4.90;99.90;;;;;;5095348;28;20131;-84
2022/03/28 01:32:08;;;;;;;25.70;6.20;;;4.90;99.90;;;;;;5095398;28;20418;-84
2022/03/28 01:34:34;;;;;;;40.60;6.57;;;5.00;99.90;;;;;;5112537;28;20055;-84
2022/03/28 01:37:00;;;;;;;64.57;8.43;;;4.90;99.90;;;;;;5095613;28;20051;-84
2022/03/28 01:39:26;;;;;;;72.00;7.77;;;5.00;99.90;;;;;;5113321;28;20035;-84
2022/03/28 01:41:52;;;;;;;47.10;7.30;;;4.90;99.90;;;;;;5112578;28;20415;-84
2022/03/28 01:44:18;;;;;;;35.73;6.87;;;4.80;99.90;;;;;;5113202;28;20120;-84
2022/03/28 01:46:46;;;;;;;90.90;8.80;;;4.80;99.90;;;;;;5105501;28;20023;-83
2022/03/28 01:49:17;;;;;;;65.50;9.17;;;4.80;99.90;;;;;;5137994;28;20047;-84
2022/03/28 01:51:42;;;;;;;60.73;9.83;;;4.80;99.90;;;;;;5114630;28;20056;-84
2022/03/28 01:54:09;;;;;;;63.70;8.90;;;4.80;99.90;;;;;;5113840;28;20051;-84
2022/03/28 01:56:36;;;;;;;25.23;7.77;;;4.80;99.90;;;;;;5094154;28;20119;-84
2022/03/28 01:59:03;;;;;;;55.90;8.50;;;4.90;99.90;;;;;;5094917;28;20058;-84
2022/03/28 02:01:29;;;;;;;37.87;8.57;;;4.90;99.90;;;;;;5112588;28;20371;-84
2022/03/28 02:03:55;;;;;;;90.33;10.37;;;4.90;99.90;;;;;;5094026;28;20047;-84
2022/03/28 02:06:20;;;;;;;86.63;11.00;;;4.90;99.90;;;;;;5112529;28;20047;-84
2022/03/28 02:08:46;;;;;;;59.17;10.17;;;4.80;99.90;;;;;;5094306;28;20047;-84
2022/03/28 02:11:12;;;;;;;65.67;9.87;;;4.80;99.90;;;;;;5094283;28;20551;-84
2022/03/28 02:13:37;;;;;;;62.40;9.97;;;4.80;99.90;;;;;;5113172;28;20040;-84
2022/03/28 02:16:03;;;;;;;44.67;10.13;;;4.90;99.90;;;;;;5094137;28;20581;-84
2022/03/28 02:18:29;;;;;;;68.30;10.80;;;4.90;99.90;;;;;;5112868;28;20395;-84
2022/03/28 02:20:55;;;;;;;44.93;10.80;;;5.00;99.90;;;;;;5094794;28;20050;-84
2022/03/28 02:23:21;;;;;;;65.57;12.00;;;5.00;99.90;;;;;;5093926;28;20100;-84
2022/03/28 02:25:47;;;;;;;83.40;12.07;;;5.00;99.90;;;;;;5113128;28;20031;-84
2022/03/28 02:28:13;;;;;;;51.33;11.47;;;5.00;99.90;;;;;;5112275;28;20068;-84
2022/03/28 02:30:39;;;;;;;89.00;11.57;;;5.00;99.90;;;;;;5093793;28;20457;-84
2022/03/28 02:33:05;;;;;;;92.77;12.30;;;5.00;99.90;;;;;;5095522;28;20071;-84
2022/03/28 02:35:31;;;;;;;48.17;10.93;;;5.00;99.90;;;;;;5098504;28;20045;-84
2022/03/28 02:38:01;;;;;;;56.80;10.77;;;5.00;99.90;;;;;;5116106;28;20047;-84
2022/03/28 02:40:31;;;;;;;75.77;11.03;;;5.00;99.90;;;;;;5098400;28;20046;-84
2022/03/28 02:42:59;;;;;;;54.57;11.07;;;5.00;99.90;;;;;;5117072;28;20035;-84
2022/03/28 02:45:25;;;;;;;66.80;11.20;;;5.00;99.90;;;;;;5080713;28;20043;-84
2022/03/28 02:47:51;;;;;;;65.20;10.37;;;5.00;99.90;;;;;;5098855;28;20071;-84
2022/03/28 02:50:16;;;;;;;73.93;11.40;;;5.00;99.90;;;;;;5098061;28;20506;-84
2022/03/28 02:52:42;;;;;;;45.57;10.93;;;5.00;99.90;;;;;;5116144;28;20391;-85
2022/03/28 02:55:08;;;;;;;108.73;13.77;;;5.00;99.90;;;;;;5098575;28;20082;-85
2022/03/28 02:57:34;;;;;;;61.00;11.83;;;5.00;99.90;;;;;;5116303;28;20040;-85
2022/03/28 03:00:00;;;;;;;54.37;11.73;;;5.00;99.90;;;;;;5097817;28;20082;-84
2022/03/28 03:02:26;;;;;;;77.60;11.07;;;5.00;99.90;;;;;;5116488;28;20529;-84
2022/03/28 03:04:51;;;;;;;67.37;10.63;;;5.00;99.90;;;;;;5098189;28;20123;-84
2022/03/28 03:07:18;;;;;;;76.50;9.87;;;4.90;99.90;;;;;;5097000;28;20074;-85
2022/03/28 03:09:44;;;;;;;44.07;9.37;;;4.90;99.90;;;;;;5098114;28;20047;-84
2022/03/28 03:12:10;;;;;;;48.67;9.43;;;4.90;99.90;;;;;;5096849;28;20054;-85
2022/03/28 03:14:36;;;;;;;53.80;9.57;;;4.90;99.90;;;;;;5097691;28;20115;-84
2022/03/28 03:17:02;;;;;;;57.97;9.30;;;4.90;99.90;;;;;;5098267;28;20073;-84
2022/03/28 03:19:28;;;;;;;57.50;8.67;;;4.80;99.90;;;;;;5115139;28;20077;-84
2022/03/28 03:21:54;;;;;;;66.50;9.80;;;4.80;99.90;;;;;;5116107;28;20050;-84
2022/03/28 03:24:19;;;;;;;60.20;11.37;;;4.80;99.90;;;;;;5115932;28;20420;-84
2022/03/28 03:26:45;;;;;;;65.40;10.23;;;4.70;99.90;;;;;;5115255;28;20039;-84
2022/03/28 03:29:11;;;;;;;85.20;11.23;;;4.70;99.90;;;;;;5115800;28;20089;-84
2022/03/28 03:31:37;;;;;;;58.77;11.17;;;4.70;99.90;;;;;;5097486;28;20047;-84
2022/03/28 03:34:03;;;;;;;49.97;10.70;;;4.70;99.90;;;;;;5115321;28;20075;-84
2022/03/28 03:36:29;;;;;;;40.17;9.30;;;4.80;99.90;;;;;;5097304;28;20075;-84
2022/03/28 03:38:55;;;;;;;47.70;9.93;;;4.70;99.90;;;;;;5115717;28;20032;-84
2022/03/28 03:41:20;;;;;;;48.97;10.43;;;4.80;99.90;;;;;;5114927;28;20038;-84
2022/03/28 03:43:46;;;;;;;106.63;12.40;;;4.80;99.90;;;;;;5115301;28;20122;-84
2022/03/28 03:46:12;;;;;;;57.57;11.80;;;4.80;99.90;;;;;;5097223;28;20368;-84
2022/03/28 03:48:37;;;;;;;75.33;10.80;;;4.80;99.90;;;;;;5096755;28;20113;-84
2022/03/28 03:51:03;;;;;;;87.50;12.67;;;4.90;99.90;;;;;;5115825;28;20378;-84
2022/03/28 03:53:28;;;;;;;52.87;11.60;;;4.90;99.90;;;;;;5096858;28;20131;-84
2022/03/28 03:55:54;;;;;;;55.93;10.53;;;5.30;99.90;;;;;;5114651;28;20048;-84
2022/03/28 03:58:19;;;;;;;60.67;10.50;;;4.90;99.90;;;;;;5096977;28;20047;-84
2022/03/28 04:00:45;;;;;;;57.90;10.13;;;4.90;99.90;;;;;;5097831;28;20043;-84
2022/03/28 04:03:11;;;;;;;47.60;8.90;;;4.90;99.90;;;;;;5111772;27;20126;-84
2022/03/28 04:05:37;;;;;;;36.97;8.83;;;4.90;99.90;;;;;;5133862;27;20081;-84
2022/03/28 04:08:06;;;;;;;31.50;8.43;;;4.80;99.90;;;;;;5134362;27;20058;-84
2022/03/28 04:10:32;;;;;;;46.63;9.17;;;4.70;99.90;;;;;;5132848;27;20398;-84
2022/03/28 04:12:58;;;;;;;41.20;8.90;;;4.70;99.90;;;;;;5134009;27;20051;-84
2022/03/28 04:15:23;;;;;;;46.60;9.10;;;4.70;99.90;;;;;;5134795;27;20436;-84
2022/03/28 04:17:49;;;;;;;46.60;8.60;;;4.70;99.90;;;;;;5135818;27;20043;-84
2022/03/28 04:20:16;;;;;;;39.30;8.30;;;4.70;99.90;;;;;;5133862;27;20118;-84
2022/03/28 04:22:45;;;;;;;41.95;9.50;;;4.70;99.90;;;;;;5133515;27;20069;-84
2022/03/28 04:25:13;;;;;;;44.60;9.70;;;4.60;99.90;;;;;;5135290;27;20043;-84
2022/03/28 04:27:39;;;;;;;40.63;9.67;;;4.70;99.90;;;;;;5135561;27;20095;-84
2022/03/28 04:30:07;;;;;;;29.67;8.23;;;4.70;99.90;;;;;;5134660;27;20091;-84
2022/03/28 04:32:33;;;;;;;42.23;9.93;;;4.70;99.90;;;;;;5134950;27;20390;-84
2022/03/28 04:34:58;;;;;;;35.03;9.27;;;4.70;99.90;;;;;;5134137;27;20039;-84
2022/03/28 04:37:24;;;;;;;33.90;9.03;;;4.80;99.90;;;;;;5132985;27;20134;-84
2022/03/28 04:39:50;;;;;;;50.07;9.40;;;4.70;99.90;;;;;;5134015;27;20493;-84
2022/03/28 04:42:15;;;;;;;30.07;8.73;;;4.70;99.90;;;;;;5134900;27;20035;-84
2022/03/28 04:44:41;;;;;;;26.67;8.30;;;4.80;99.90;;;;;;5134702;27;20047;-84
2022/03/28 04:47:07;;;;;;;37.50;9.73;;;4.80;99.90;;;;;;5140557;27;20068;-83
2022/03/28 04:49:33;;;;;;;40.47;11.23;;;4.80;99.90;;;;;;5140407;27;20069;-84
2022/03/28 04:51:59;;;;;;;43.87;10.43;;;4.80;99.90;;;;;;5134385;27;20050;-84
2022/03/28 04:54:24;;;;;;;46.93;10.00;;;4.80;99.90;;;;;;5133799;27;20112;-83
2022/03/28 04:56:50;;;;;;;31.87;9.60;;;4.90;99.90;;;;;;5134080;27;20046;-84
2022/03/28 04:59:16;;;;;;;61.77;12.37;;;4.90;99.90;;;;;;5132157;27;20483;-84
2022/03/28 05:01:41;;;;;;;49.20;11.10;;;4.90;99.90;;;;;;5134997;27;20118;-84
2022/03/28 05:04:07;;;;;;;47.20;11.03;;;4.90;99.90;;;;;;5134907;27;20043;-84
2022/03/28 05:06:33;;;;;;;49.77;11.00;;;4.90;99.90;;;;;;5133636;27;20066;-84
2022/03/28 05:08:59;;;;;;;64.80;12.20;;;4.90;99.90;;;;;;5134652;27;20039;-84
2022/03/28 05:11:24;;;;;;;38.23;11.43;;;4.90;99.90;;;;;;5132917;27;20137;-84
2022/03/28 05:13:50;;;;;;;60.50;11.17;;;5.10;99.90;;;;;;5132369;27;20473;-84
2022/03/28 05:16:16;;;;;;;60.80;11.73;;;5.10;99.90;;;;;;5134396;27;20039;-84
2022/03/28 05:18:42;;;;;;;61.77;12.30;;;4.80;99.90;;;;;;5132446;27;20100;-84
2022/03/28 05:21:08;;;;;;;74.83;13.03;;;4.70;99.90;;;;;;5132735;27;20051;-84
2022/03/28 05:23:34;;;;;;;43.47;10.77;;;4.70;99.90;;;;;;5134125;27;20454;-84
2022/03/28 05:25:59;;;;;;;58.53;12.50;;;4.70;99.90;;;;;;5132393;27;20046;-84
2022/03/28 05:28:25;;;;;;;52.83;11.47;;;4.70;99.90;;;;;;5133716;27;20074;-84
2022/03/28 05:30:52;;;;;;;46.00;12.40;;;4.70;99.90;;;;;;5133994;27;20050;-84
2022/03/28 05:33:18;;;;;;;57.83;12.73;;;4.70;99.90;;;;;;5131653;27;20055;-84
2022/03/28 05:35:44;;;;;;;63.07;15.63;;;4.70;99.90;;;;;;5133096;27;20035;-84
2022/03/28 05:38:10;;;;;;;59.03;13.40;;;4.80;99.90;;;;;;5132779;27;20407;-84
2022/03/28 05:40:36;;;;;;;59.83;14.60;;;4.80;99.90;;;;;;5131896;27;20316;-84
2022/03/28 05:43:02;;;;;;;67.57;14.73;;;4.70;99.90;;;;;;5132577;27;20091;-85
2022/03/28 05:45:28;;;;;;;42.10;13.03;;;4.70;99.90;;;;;;5133587;27;20058;-84
2022/03/28 05:47:54;;;;;;;48.90;14.27;;;4.70;99.90;;;;;;5133202;27;20035;-84
2022/03/28 05:50:20;;;;;;;38.67;13.37;;;4.70;99.90;;;;;;5132114;27;20039;-85
2022/03/28 05:52:45;;;;;;;40.75;13.82;;;4.70;99.90;;;;;;5133666;27;20047;-84
2022/03/28 05:55:11;;;;;;;58.10;13.97;;;4.70;99.90;;;;;;5131821;27;20428;-84
2022/03/28 05:57:37;;;;;;;36.23;13.80;;;4.80;99.90;;;;;;5134050;27;20039;-84
2022/03/28 06:00:05;;;;;;;40.97;13.83;;;4.90;99.90;;;;;;5133997;27;20513;-84
2022/03/28 06:02:31;;;;;;;37.17;13.53;;;4.80;99.90;;;;;;5132593;27;20045;-84
2022/03/28 06:04:57;;;;;;;32.83;12.17;;;4.80;99.90;;;;;;5133921;27;20084;-84
2022/03/28 06:07:22;;;;;;;35.43;11.80;;;4.80;99.90;;;;;;5133193;27;20043;-84
2022/03/28 06:09:48;;;;;;;37.33;11.90;;;4.80;99.90;;;;;;5133070;27;20035;-84
2022/03/28 06:12:15;;;;;;;29.83;12.07;;;4.80;99.90;;;;;;5131523;28;20066;-84
2022/03/28 06:14:40;;;;;;;31.88;11.30;;;4.70;99.90;;;;;;5133463;28;20035;-84
2022/03/28 06:17:06;;;;;;;34.43;11.83;;;4.70;99.90;;;;;;5131688;28;20546;-84
2022/03/28 06:19:32;;;;;;;35.53;12.73;;;4.70;99.90;;;;;;5131718;28;20051;-84
2022/03/28 06:21:58;;;;;;;32.07;11.97;;;4.70;99.90;;;;;;5131398;28;20082;-84
2022/03/28 06:24:24;;;;;;;30.93;11.83;;;4.80;99.90;;;;;;5132102;28;20055;-84
2022/03/28 06:26:49;;;;;;;33.03;12.77;;;4.80;99.90;;;;;;5133870;28;20048;-84
2022/03/28 06:29:15;;;;;;;33.00;11.97;;;4.80;99.90;;;;;;5131159;28;20035;-84
2022/03/28 06:31:41;;;;;;;37.80;12.60;;;4.80;99.90;;;;;;5132018;28;20066;-84
2022/03/28 06:34:07;;;;;;;47.20;13.03;;;4.80;99.90;;;;;;5133524;28;20136;-84
2022/03/28 06:36:34;;;;;;;31.38;12.27;;;4.90;99.90;;;;;;5130800;28;20080;-86
2022/03/28 06:39:00;;;;;;;45.03;12.10;;;4.90;99.90;;;;;;5132355;28;20432;-88
2022/03/28 06:41:29;;;;;;;41.93;11.93;;;4.90;99.90;;;;;;5142374;27;20094;-91
2022/03/28 06:43:58;;;;;;;29.90;11.40;;;4.80;99.90;;;;;;5135380;27;20034;-95
2022/03/28 06:46:24;;;;;;;31.57;10.50;;;5.40;99.90;;;;;;5153505;27;20047;-92
2022/03/28 06:48:50;;;;;;;33.60;10.00;;;4.60;99.90;;;;;;5154251;27;20136;-92
2022/03/28 06:51:21;;;;;;;36.07;10.80;;;5.20;99.90;;;;;;5120787;28;20075;-96
2022/03/28 06:53:52;;;;;;;27.20;10.07;;;5.70;99.90;;;;;;5120978;28;20039;-96
2022/03/28 06:56:28;;;;;;;24.00;9.97;;;4.70;99.90;;;;;;5128088;28;20035;-96
2022/03/28 06:59:09;;;;;;;24.80;9.70;;;5.50;99.90;;;;;;5384952;22;20091;-94
2022/03/28 07:01:36;;;;;;;50.07;11.60;;;5.30;99.90;;;;;;5067129;28;20697;-94
2022/03/28 07:04:21;;;;;;;35.83;10.77;;;4.70;99.90;;;;;;5056455;28;20048;-96
2022/03/28 07:07:25;;;;;;;26.70;10.83;;;2.80;99.90;;;;;;5067897;22;20116;-96
2022/03/28 07:13:19;;;;;;;31.43;10.60;;;4.80;99.90;;;;;;5574032;23;20312;-96
2022/03/28 07:19:06;;;;;;;26.80;9.50;;;4.00;99.90;;;;;;5030933;23;20058;-91
2022/03/28 07:21:37;;;;;;;33.93;8.93;;;5.00;99.90;;;;;;4996155;28;20046;-91
2022/03/28 07:24:10;;;;;;;26.20;9.23;;;5.40;99.90;;;;;;4996743;28;20042;-91
2022/03/28 07:26:38;;;;;;;36.60;8.63;;;4.70;99.90;;;;;;4994948;28;20100;-90
2022/03/28 07:29:07;;;;;;;21.93;7.87;;;4.40;99.90;;;;;;4995161;28;20082;-91
2022/03/28 07:31:40;;;;;;;23.40;8.00;;;5.10;99.90;;;;;;4996178;28;20056;-92
2022/03/28 07:37:17;;;;;;;17.85;6.55;;;5.10;99.90;;;;;;4996287;28;20501;-95
2022/03/28 07:43:29;;;;;;;15.13;5.80;;;5.10;99.90;;;;;;5053314;23;20271;-96
2022/03/28 07:45:55;;;;;;;13.07;4.63;;;5.10;99.90;;;;;;5073616;28;20068;-93
2022/03/28 07:48:27;;;;;;;14.63;5.07;;;5.40;99.90;;;;;;5061626;28;20017;-94
2022/03/28 07:51:05;;;;;;;13.47;4.83;;;5.60;99.90;;;;;;5078265;28;20040;-95
2022/03/28 07:53:54;;;;;;;14.00;5.30;;;5.00;99.90;;;;;;5031805;28;20064;-95
2022/03/28 07:56:28;;;;;;;17.07;5.53;;;5.20;99.90;;;;;;5066238;23;20052;-93
2022/03/28 07:59:01;;;;;;;13.33;5.40;;;4.90;99.90;;;;;;5069424;28;21420;-94
2022/03/28 08:01:29;;;;;;;13.43;5.10;;;5.20;99.90;;;;;;5081641;28;20403;-94
2022/03/28 08:04:02;;;;;;;11.87;4.60;;;5.30;99.90;;;;;;5082031;28;20040;-94
2022/03/28 08:07:30;;;;;;;11.93;4.55;;;6.10;99.90;;;;;;5086314;22;20046;-93
2022/03/28 08:10:46;;;;;;;13.83;4.83;;;5.20;99.90;;;;;;5043044;28;20053;-93
2022/03/28 08:13:12;;;;;;;11.85;4.28;;;5.40;99.90;;;;;;5031517;28;20050;-93
2022/03/28 08:15:44;;;;;;;11.60;4.67;;;5.10;99.90;;;;;;5037807;28;20508;-91
2022/03/28 08:18:21;;;;;;;15.00;4.90;;;5.70;99.90;;;;;;5032174;28;20072;-91
2022/03/28 08:20:50;;;;;;;13.32;4.70;;;5.40;99.90;;;;;;5030872;28;20042;-92
2022/03/28 08:23:26;;;;;;;14.02;4.97;;;7.00;99.90;;;;;;5037414;28;20042;-94
2022/03/28 08:25:55;;;;;;;12.82;4.50;;;5.30;99.90;;;;;;5043047;28;20033;-93
2022/03/28 08:28:26;;;;;;;12.18;4.95;;;5.50;99.90;;;;;;5043701;28;20055;-93
2022/03/28 08:31:04;;;;;;;12.17;4.47;;;5.30;99.90;;;;;;5050945;22;20076;-92
2022/03/28 08:33:33;;;;;;;13.95;4.82;;;5.70;99.90;;;;;;5069746;23;20049;-93
2022/03/28 08:35:58;;;;;;;12.27;4.65;;;6.50;99.90;;;;;;5036269;23;20058;-92
2022/03/28 08:38:24;;;;;;;13.67;4.67;;;5.30;99.90;;;;;;5014985;28;20052;-93
2022/03/28 08:40:52;;;;;;;11.38;4.15;;;5.70;99.90;;;;;;5005485;28;20066;-93
2022/03/28 08:43:30;;;;;;;12.60;4.60;;;5.50;99.90;;;;;;5003818;28;20100;-93
2022/03/28 08:46:08;;;;;;;13.25;4.90;;;5.00;99.90;;;;;;5010622;28;20050;-93
2022/03/28 08:48:40;;;;;;;10.82;4.18;;;6.50;99.90;;;;;;5053464;22;20105;-94
2022/03/28 08:51:13;;;;;;;11.90;4.80;;;5.80;99.90;;;;;;5012227;28;20078;-94
2022/03/28 08:56:09;;;;;;;12.25;4.30;;;5.90;99.90;;;;;;5053538;22;20394;-96
2022/03/28 09:01:06;;;;;;;10.75;3.83;;;6.00;99.90;;;;;;5058646;22;20068;-93
2022/03/28 09:03:40;;;;;;;10.77;4.30;;;6.20;99.90;;;;;;5069918;22;20056;-93
2022/03/28 09:06:42;;;;;;;11.25;4.22;;;6.10;99.90;;;;;;5011036;28;20049;-94
2022/03/28 09:09:34;;;;;;;;;;;;;;;;;;;;;
2022/03/28 09:12:21;;;;;;;9.90;3.95;;;7.10;99.90;;;;;;5033592;28;20045;-93
2022/03/28 09:15:18;;;;;;;10.57;4.03;;;6.30;99.90;;;;;;5034423;28;20124;-93
2022/03/28 09:17:55;;;;;;;11.10;4.65;;;6.00;99.90;;;;;;5044360;28;20045;-95
2022/03/28 09:20:27;;;;;;;11.32;4.25;;;7.30;99.90;;;;;;5043037;28;20032;-96
2022/03/28 09:22:52;;;;;;;12.13;4.85;;;7.70;99.90;;;;;;5064650;28;20453;-94
2022/03/28 09:25:23;;;;;;;10.20;4.43;;;7.00;99.90;;;;;;5047281;28;20040;-94
2022/03/28 09:27:51;;;;;;;10.32;3.75;;;6.80;99.90;;;;;;5064764;22;20045;-95
2022/03/28 09:30:33;;;;;;;9.80;3.90;;;6.80;99.90;;;;;;5036223;28;20406;-94
2022/03/28 09:32:58;;;;;;;10.02;3.85;;;6.60;99.90;;;;;;5035602;28;20056;-94
2022/03/28 09:35:26;;;;;;;10.50;4.10;;;7.30;99.90;;;;;;5035727;28;20041;-94
2022/03/28 09:38:01;;;;;;;9.70;3.92;;;7.70;99.90;;;;;;5037229;28;20049;-94
2022/03/28 09:41:06;;;;;;;9.25;3.63;;;7.60;99.90;;;;;;5054498;28;20040;-95
2022/03/28 09:43:40;;;;;;;10.27;4.05;;;7.00;99.90;;;;;;5052677;28;20049;-94
2022/03/28 09:46:25;;;;;;;9.57;3.72;;;7.80;99.90;;;;;;5034927;28;20411;-94
2022/03/28 09:48:51;;;;;;;8.93;3.60;;;7.10;99.90;;;;;;5070082;22;20053;-93
2022/03/28 09:51:22;;;;;;;9.57;4.03;;;6.70;99.90;;;;;;5092302;28;20059;-95
2022/03/28 09:53:49;;;;;;;10.70;4.07;;;7.00;99.90;;;;;;5082471;28;20052;-93
2022/03/28 09:57:05;;;;;;;9.57;3.90;;;7.00;99.90;;;;;;5088899;22;20040;-95
2022/03/28 09:59:39;;;;;;;10.23;4.20;;;7.40;99.90;;;;;;5052119;28;20060;-94
2022/03/28 10:02:35;;;;;;;10.25;4.60;;;7.40;99.90;;;;;;4971520;28;20051;-91
2022/03/28 10:05:01;;;;;;;9.82;3.83;;;7.50;99.90;;;;;;4956610;28;20565;-92
2022/03/28 10:07:39;;;;;;;10.68;4.18;;;7.40;99.90;;;;;;4954991;28;20059;-91
2022/03/28 10:10:10;;;;;;;9.90;4.13;;;7.70;99.90;;;;;;4955636;28;20558;-92
2022/03/28 10:12:39;;;;;;;10.23;4.35;;;7.70;99.90;;;;;;4971815;28;20055;-92
2022/03/28 10:15:06;;;;;;;9.63;4.15;;;8.00;99.90;;;;;;4954885;28;20051;-93
2022/03/28 10:17:38;;;;;;;9.95;4.50;;;8.20;99.90;;;;;;4955760;28;20050;-91
2022/03/28 10:20:10;;;;;;;9.95;4.43;;;8.20;99.90;;;;;;4985018;28;20051;-94
2022/03/28 10:22:42;;;;;;;9.90;4.20;;;8.50;99.90;;;;;;4960239;28;20104;-91
2022/03/28 10:25:16;;;;;;;10.38;4.57;;;8.10;99.90;;;;;;4976626;28;20043;-90
2022/03/28 10:27:45;;;;;;;11.13;4.65;;;8.20;99.90;;;;;;4970750;28;20058;-90
2022/03/28 10:30:35;;;;;;;10.55;4.25;;;8.60;99.90;;;;;;4954761;28;20640;-90
2022/03/28 10:33:31;;;;;;;10.50;4.70;;;7.90;99.90;;;;;;4957518;28;20066;-88
2022/03/28 10:36:28;;;;;;;10.70;4.38;;;8.50;99.90;;;;;;4956670;28;20214;-90
2022/03/28 10:39:37;;;;;;;10.07;4.40;;;8.30;99.90;;;;;;4996094;28;20053;-89
2022/03/28 10:42:12;;;;;;;9.88;4.55;;;9.00;99.90;;;;;;5052132;28;20102;-91
2022/03/28 10:44:47;;;;;;;9.95;4.40;;;9.10;99.90;;;;;;5034529;28;20523;-90
2022/03/28 10:47:16;;;;;;;9.43;4.22;;;8.90;99.90;;;;;;5055717;28;20100;-89
2022/03/28 10:49:52;;;;;;;9.60;4.40;;;9.00;99.90;;;;;;5070544;28;20041;-91
2022/03/28 10:52:18;;;;;;;10.68;4.60;;;9.50;99.90;;;;;;5038001;28;20063;-91
2022/03/28 10:54:50;;;;;;;10.50;4.45;;;9.80;99.90;;;;;;5047439;28;20426;-90
2022/03/28 11:00:25;;;;;;;10.57;4.60;;;11.10;99.90;;;;;;5075819;28;20052;-93
2022/03/28 11:03:02;;;;;;;9.43;4.47;;;10.90;99.90;;;;;;5070044;22;20041;-93
2022/03/28 11:06:19;;;;;;;10.27;4.70;;;10.10;99.90;;;;;;5195760;23;20412;-93
2022/03/28 11:09:02;;;;;;;13.48;5.32;;;10.80;99.90;;;;;;5028045;28;20484;-90
2022/03/28 11:11:32;;;;;;;10.13;4.80;;;10.50;99.90;;;;;;5025066;28;20045;-88
2022/03/28 11:14:12;;;;;;;10.45;4.93;;;10.60;99.90;;;;;;5025890;28;20049;-89
2022/03/28 11:16:44;;;;;;;10.82;4.80;;;10.50;99.90;;;;;;5026829;28;20120;-89
2022/03/28 11:20:09;;;;;;;11.20;5.28;;;10.50;99.90;;;;;;5019185;28;20056;-91
2022/03/28 11:23:07;;;;;;;11.10;4.88;;;10.40;99.90;;;;;;5023623;28;20045;-90
2022/03/28 11:25:46;;;;;;;10.70;4.60;;;10.70;99.90;;;;;;5021382;28;20050;-89
2022/03/28 11:28:13;;;;;;;10.75;4.93;;;11.20;99.90;;;;;;5059295;23;20108;-91
2022/03/28 11:31:07;;;;;;;9.98;5.05;;;11.50;99.90;;;;;;5078025;28;20499;-90
2022/03/28 11:33:40;;;;;;;11.45;5.30;;;11.80;99.90;;;;;;5046638;28;20060;-91
2022/03/28 11:36:21;;;;;;;10.85;5.45;;;11.90;99.90;;;;;;5063775;22;20496;-91
2022/03/28 11:39:36;;;;;;;11.00;5.68;;;11.20;99.90;;;;;;5039377;28;20516;-94
2022/03/28 11:42:04;;;;;;;10.80;5.32;;;11.20;99.90;;;;;;5031802;28;20049;-94
2022/03/28 11:44:37;;;;;;;10.90;5.65;;;11.40;99.90;;;;;;5047233;28;20034;-94
2022/03/28 11:47:17;;;;;;;11.35;5.07;;;11.40;99.90;;;;;;5042976;28;20037;-94
2022/03/28 11:50:13;;;;;;;11.07;5.55;;;10.60;99.90;;;;;;5048422;28;20041;-94
2022/03/28 11:52:50;;;;;;;11.00;5.10;;;10.70;99.90;;;;;;5073728;22;20084;-93
2022/03/28 11:56:01;;;;;;;11.88;6.20;;;12.20;99.90;;;;;;5045825;23;20103;-94
2022/03/28 11:58:39;;;;;;;11.05;5.85;;;11.70;99.90;;;;;;5029631;28;20045;-95
2022/03/28 12:01:13;;;;;;;11.30;5.82;;;11.80;99.90;;;;;;5044041;28;20045;-94
2022/03/28 12:03:49;;;;;;;11.27;5.97;;;12.70;99.90;;;;;;5044138;28;20064;-93
2022/03/28 12:08:56;;;;;;;11.43;5.90;;;12.10;99.90;;;;;;5103959;22;20045;-94
2022/03/28 12:11:28;;;;;;;11.57;6.25;;;12.00;99.90;;;;;;5049818;28;20040;-95
2022/03/28 12:13:58;;;;;;;10.90;5.95;;;11.80;99.90;;;;;;5060922;28;20052;-96
2022/03/28 12:16:29;;;;;;;10.25;5.80;;;12.30;99.90;;;;;;5044771;28;20037;-95
2022/03/28 12:18:59;;;;;;;13.77;7.07;;;13.70;99.90;;;;;;5064095;28;20476;-95
2022/03/28 12:21:30;;;;;;;11.50;6.22;;;12.40;99.90;;;;;;5041973;28;20112;-94
2022/03/28 12:24:06;;;;;;;12.23;6.72;;;12.00;99.90;;;;;;5061434;28;20089;-95
2022/03/28 12:26:46;;;;;;;12.07;6.63;;;12.60;99.90;;;;;;5050994;28;20041;-94
2022/03/28 12:29:18;;;;;;;13.70;7.03;;;13.10;99.90;;;;;;5039469;28;20040;-93
2022/03/28 12:31:55;;;;;;;11.80;6.55;;;13.20;99.90;;;;;;5062632;28;20044;-93
2022/03/28 12:34:34;;;;;;;13.23;6.95;;;13.30;99.90;;;;;;5038966;28;20408;-93
2022/03/28 12:37:21;;;;;;;12.02;6.97;;;12.10;99.90;;;;;;5058027;28;20041;-92
2022/03/28 12:40:00;;;;;;;11.88;6.93;;;12.60;99.90;;;;;;5064651;28;20044;-91
2022/03/28 12:42:27;;;;;;;13.15;7.40;;;13.60;99.90;;;;;;5061452;28;20029;-87
2022/03/28 12:44:59;;;;;;;12.82;7.80;;;13.60;99.90;;;;;;5054609;28;20044;-89
2022/03/28 12:47:30;;;;;;;12.93;7.68;;;13.90;99.90;;;;;;5035636;28;20056;-89
2022/03/28 12:50:11;;;;;;;12.32;7.50;;;13.40;99.90;;;;;;5042871;28;20135;-89
2022/03/28 12:52:49;;;;;;;13.18;8.00;;;12.60;99.90;;;;;;5044138;28;20036;-87
2022/03/28 12:55:27;;;;;;;13.65;7.90;;;14.00;99.90;;;;;;5043987;28;20087;-89
2022/03/28 12:58:00;;;;;;;14.18;7.80;;;13.50;99.90;;;;;;5042246;28;20075;-88
2022/03/28 13:01:13;;;;;;;13.48;8.10;;;14.90;99.90;;;;;;5076239;22;21448;-89
2022/03/28 13:03:40;;;;;;;12.82;7.65;;;13.80;99.90;;;;;;5060450;28;20392;-87
2022/03/28 13:06:32;;;;;;;13.02;8.32;;;14.10;99.90;;;;;;5089085;28;20031;-87
2022/03/28 13:09:04;;;;;;;12.68;7.90;;;14.00;99.90;;;;;;5089477;28;20475;-87
2022/03/28 13:11:32;;;;;;;12.90;7.93;;;14.20;99.90;;;;;;5087623;28;20047;-87
2022/03/28 13:14:07;;;;;;;14.60;8.65;;;14.40;99.90;;;;;;5086889;28;20162;-86
2022/03/28 13:17:05;;;;;;;13.18;8.45;;;14.40;99.90;;;;;;5077398;28;20119;-86
2022/03/28 13:19:31;;;;;;;13.70;8.68;;;14.50;99.90;;;;;;5083808;28;20054;-86
2022/03/28 13:22:08;;;;;;;12.60;8.05;;;13.90;99.90;;;;;;5082872;28;20491;-86
2022/03/28 13:24:40;;;;;;;16.20;8.85;;;14.70;99.90;;;;;;5082029;22;20048;-86
2022/03/28 13:28:09;;;;;;;13.73;8.95;;;14.70;99.90;;;;;;5040545;28;20042;-85
2022/03/28 13:30:57;;;;;;;14.00;8.45;;;14.80;99.90;;;;;;5039155;28;20065;-85
2022/03/28 13:33:32;;;;;;;16.35;9.02;;;14.70;99.90;;;;;;5041563;28;20481;-85